createdAt,value
2018-09-29T00:01:15.155Z,15.57
2018-09-29T00:03:43.930Z,10.40
2018-09-29T00:06:20.440Z,9.80
2018-09-29T00:08:48.740Z,6.20
2018-09-29T00:11:17.053Z,6.90
2018-09-29T00:13:46.376Z,9.93
2018-09-29T00:16:14.974Z,7.90
2018-09-29T00:18:43.245Z,9.83
2018-09-29T00:21:11.547Z,11.17
2018-09-29T00:23:39.895Z,8.40
2018-09-29T00:26:08.414Z,8.90
2018-09-29T00:28:36.791Z,12.50
2018-09-29T00:31:05.825Z,14.83
2018-09-29T00:33:34.689Z,10.30
2018-09-29T00:36:03.765Z,10.10
2018-09-29T00:38:32.075Z,12.50
2018-09-29T00:41:00.389Z,8.57
2018-09-29T00:43:28.836Z,7.87
2018-09-29T00:45:57.134Z,13.33
2018-09-29T00:48:25.607Z,9.90
2018-09-29T00:50:53.913Z,8.63
2018-09-29T00:53:22.227Z,12.00
2018-09-29T00:55:51.102Z,12.13
2018-09-29T00:58:19.578Z,7.90
2018-09-29T01:00:48.135Z,5.90
2018-09-29T01:03:16.525Z,11.90
2018-09-29T01:05:44.874Z,14.07
2018-09-29T01:08:13.174Z,12.50
2018-09-29T01:10:42.435Z,6.10
2018-09-29T01:13:10.927Z,8.57
2018-09-29T01:15:39.473Z,6.20
2018-09-29T01:18:08.391Z,10.10
2018-09-29T01:20:37.619Z,10.10
2018-09-29T01:23:06.587Z,6.67
2018-09-29T01:25:34.924Z,9.77
2018-09-29T01:28:03.243Z,15.83
2018-09-29T01:30:31.832Z,14.73
2018-09-29T01:33:00.311Z,17.33
2018-09-29T01:35:29.282Z,22.07
2018-09-29T01:37:57.642Z,20.97
2018-09-29T01:40:26.020Z,13.97
2018-09-29T01:42:54.855Z,21.27
2018-09-29T01:45:23.237Z,14.83
2018-09-29T01:47:51.555Z,17.60
2018-09-29T01:50:19.923Z,21.67
2018-09-29T01:52:48.238Z,10.30
2018-09-29T01:55:16.558Z,6.60
2018-09-29T01:57:44.847Z,14.43
2018-09-29T02:00:13.163Z,7.90
2018-09-29T02:02:41.568Z,16.97
2018-09-29T02:05:09.987Z,8.23
2018-09-29T02:07:38.435Z,8.70
2018-09-29T02:10:07.052Z,9.93
2018-09-29T02:12:35.499Z,13.13
2018-09-29T02:15:05.303Z,11.87
2018-09-29T02:17:34.515Z,11.90
2018-09-29T02:20:02.761Z,10.60
2018-09-29T02:22:31.132Z,9.53
2018-09-29T02:24:59.504Z,9.57
2018-09-29T02:27:28.257Z,12.03
2018-09-29T02:29:56.558Z,14.30
2018-09-29T02:32:24.960Z,9.60
2018-09-29T02:34:53.263Z,19.90
2018-09-29T02:37:21.643Z,7.57
2018-09-29T02:39:49.938Z,15.67
2018-09-29T02:42:18.327Z,7.37
2018-09-29T02:44:53.184Z,8.03
2018-09-29T02:47:21.899Z,7.97
2018-09-29T02:49:50.183Z,7.70
2018-09-29T02:52:18.679Z,11.00
2018-09-29T02:54:47.361Z,8.23
2018-09-29T02:57:15.766Z,13.90
2018-09-29T02:59:44.056Z,11.00
2018-09-29T03:02:12.387Z,11.30
2018-09-29T03:04:40.797Z,16.83
2018-09-29T03:07:09.276Z,17.20
2018-09-29T03:09:37.726Z,7.80
2018-09-29T03:12:07.082Z,10.30
2018-09-29T03:14:35.601Z,11.57
2018-09-29T03:17:04.078Z,8.30
2018-09-29T03:19:32.489Z,8.03
2018-09-29T03:22:00.798Z,18.33
2018-09-29T03:24:29.361Z,10.33
2018-09-29T03:26:57.740Z,9.17
2018-09-29T03:29:26.509Z,13.23
2018-09-29T03:31:55.264Z,12.53
2018-09-29T03:34:23.949Z,5.60
2018-09-29T03:36:52.349Z,14.53
2018-09-29T03:39:20.704Z,12.37
2018-09-29T03:41:49.210Z,6.83
2018-09-29T03:44:17.535Z,9.27
2018-09-29T03:46:46.008Z,8.77
2018-09-29T03:49:14.378Z,20.20
2018-09-29T03:51:42.679Z,10.77
2018-09-29T03:54:11.143Z,12.40
2018-09-29T03:56:39.451Z,10.70
2018-09-29T03:59:07.760Z,9.50
2018-09-29T04:04:32.335Z,18.50
2018-09-29T04:07:01.184Z,11.07
2018-09-29T04:09:30.267Z,4.60
2018-09-29T04:11:59.192Z,10.40
2018-09-29T04:14:28.061Z,9.20
2018-09-29T04:16:57.257Z,12.73
2018-09-29T04:19:26.065Z,12.70
2018-09-29T04:21:54.880Z,7.50
2018-09-29T04:24:23.998Z,6.63
2018-09-29T04:26:52.903Z,7.57
2018-09-29T04:29:21.672Z,5.10
2018-09-29T04:31:50.692Z,8.17
2018-09-29T04:34:19.596Z,8.90
2018-09-29T04:36:48.385Z,5.50
2018-09-29T04:39:17.128Z,8.83
2018-09-29T04:41:45.921Z,7.17
2018-09-29T04:44:14.765Z,7.63
2018-09-29T04:46:43.496Z,10.57
2018-09-29T04:49:12.412Z,10.97
2018-09-29T04:51:41.318Z,14.87
2018-09-29T04:54:10.054Z,7.90
2018-09-29T04:56:38.819Z,7.90
2018-09-29T04:59:07.767Z,7.37
2018-09-29T05:01:36.604Z,5.67
2018-09-29T05:04:05.245Z,7.87
2018-09-29T05:06:34.016Z,6.03
2018-09-29T05:09:02.807Z,7.47
2018-09-29T05:11:31.581Z,17.27
2018-09-29T05:14:00.457Z,7.40
2018-09-29T05:16:29.585Z,9.03
2018-09-29T05:18:58.775Z,6.80
2018-09-29T05:21:28.695Z,8.53
2018-09-29T05:23:57.473Z,11.53
2018-09-29T05:26:26.194Z,14.80
2018-09-29T05:28:55.183Z,16.67
2018-09-29T05:31:24.019Z,6.83
2018-09-29T05:33:53.161Z,8.63
2018-09-29T05:36:22.340Z,11.63
2018-09-29T05:38:51.130Z,12.67
2018-09-29T05:41:20.036Z,5.40
2018-09-29T05:43:48.834Z,9.60
2018-09-29T05:46:20.790Z,13.07
2018-09-29T05:48:50.191Z,14.77
2018-09-29T05:51:18.874Z,16.10
2018-09-29T05:53:48.528Z,12.83
2018-09-29T05:56:18.137Z,14.10
2018-09-29T05:58:46.954Z,14.20
2018-09-29T06:01:15.848Z,7.97
2018-09-29T06:03:44.663Z,9.00
2018-09-29T06:06:13.567Z,5.20
2018-09-29T06:08:42.449Z,11.87
2018-09-29T06:11:11.581Z,13.67
2018-09-29T06:13:40.438Z,8.57
2018-09-29T06:16:09.257Z,6.30
2018-09-29T06:18:38.222Z,11.00
2018-09-29T06:21:07.338Z,7.67
2018-09-29T06:23:36.176Z,6.63
2018-09-29T06:26:04.986Z,8.53
2018-09-29T06:28:33.668Z,10.83
2018-09-29T06:31:02.371Z,13.83
2018-09-29T06:33:31.432Z,12.93
2018-09-29T06:36:00.768Z,10.50
2018-09-29T06:38:29.346Z,9.33
2018-09-29T06:40:58.151Z,10.10
2018-09-29T06:43:26.878Z,13.23
2018-09-29T06:45:56.232Z,12.70
2018-09-29T06:48:24.919Z,8.60
2018-09-29T06:50:53.709Z,7.00
2018-09-29T06:53:22.676Z,13.03
2018-09-29T06:55:52.686Z,7.83
2018-09-29T06:58:22.497Z,13.03
2018-09-29T07:00:52.008Z,7.20
2018-09-29T07:03:21.463Z,19.03
2018-09-29T07:05:50.993Z,7.73
2018-09-29T07:08:20.391Z,16.00
2018-09-29T07:10:49.914Z,18.33
2018-09-29T07:13:19.355Z,16.93
2018-09-29T07:15:48.746Z,19.07
2018-09-29T07:18:18.184Z,12.13
2018-09-29T07:20:47.800Z,11.43
2018-09-29T07:23:17.351Z,7.83
2018-09-29T07:25:46.854Z,14.53
2018-09-29T07:28:16.219Z,7.60
2018-09-29T07:30:45.759Z,6.77
2018-09-29T07:33:15.318Z,12.20
2018-09-29T07:35:44.777Z,11.07
2018-09-29T07:38:14.278Z,14.60
2018-09-29T07:40:43.800Z,9.90
2018-09-29T07:43:13.378Z,11.23
2018-09-29T07:45:42.808Z,9.57
2018-09-29T07:48:12.369Z,16.43
2018-09-29T07:50:43.822Z,11.30
2018-09-29T07:53:13.780Z,12.20
2018-09-29T07:55:43.553Z,10.83
2018-09-29T07:58:13.170Z,17.53
2018-09-29T08:00:44.739Z,16.10
2018-09-29T08:03:15.501Z,6.40
2018-09-29T08:05:45.617Z,9.90
2018-09-29T08:08:17.798Z,13.60
2018-09-29T08:10:47.657Z,9.57
2018-09-29T08:13:17.644Z,4.03
2018-09-29T08:15:47.349Z,8.30
2018-09-29T08:18:17.020Z,17.20
2018-09-29T08:20:46.654Z,10.10
2018-09-29T08:23:16.254Z,17.00
2018-09-29T08:25:46.330Z,12.53
2018-09-29T08:28:16.037Z,14.07
2018-09-29T08:30:45.864Z,15.97
2018-09-29T08:33:15.556Z,12.00
2018-09-29T08:35:45.735Z,8.40
2018-09-29T08:38:15.417Z,7.53
2018-09-29T08:40:44.758Z,9.40
2018-09-29T08:43:14.288Z,6.43
2018-09-29T08:45:43.743Z,11.63
2018-09-29T08:48:13.818Z,12.40
2018-09-29T08:50:46.124Z,17.00
2018-09-29T08:53:16.899Z,12.53
2018-09-29T08:55:47.302Z,10.30
2018-09-29T08:58:16.525Z,8.87
2018-09-29T09:00:45.938Z,9.90
2018-09-29T09:03:15.756Z,13.20
2018-09-29T09:05:45.192Z,13.33
2018-09-29T09:08:15.329Z,11.53
2018-09-29T09:10:44.818Z,15.17
2018-09-29T09:13:14.280Z,9.97
2018-09-29T09:15:44.170Z,8.43
2018-09-29T09:18:13.630Z,6.17
2018-09-29T09:20:42.921Z,10.43
2018-09-29T09:23:12.233Z,10.40
2018-09-29T09:25:41.966Z,6.00
2018-09-29T09:28:11.392Z,14.10
2018-09-29T09:30:40.987Z,15.50
2018-09-29T09:33:10.624Z,9.83
2018-09-29T09:35:40.147Z,14.57
2018-09-29T09:38:09.615Z,15.57
2018-09-29T09:40:39.205Z,10.93
2018-09-29T09:43:08.665Z,8.93
2018-09-29T09:45:38.189Z,11.50
2018-09-29T09:48:07.669Z,10.47
2018-09-29T09:50:36.796Z,15.73
2018-09-29T09:53:06.326Z,13.30
2018-09-29T09:55:35.800Z,13.87
2018-09-29T09:58:05.389Z,9.77
2018-09-29T10:00:40.965Z,8.73
2018-09-29T10:03:16.121Z,12.33
2018-09-29T10:05:45.677Z,8.53
2018-09-29T10:08:15.235Z,4.77
2018-09-29T10:10:44.831Z,6.87
2018-09-29T10:13:16.331Z,6.93
2018-09-29T10:15:45.971Z,8.70
2018-09-29T10:18:15.466Z,10.40
2018-09-29T10:20:44.870Z,6.53
2018-09-29T10:23:14.161Z,7.53
2018-09-29T10:25:43.785Z,4.83
2018-09-29T10:28:13.147Z,4.60
2018-09-29T10:30:42.103Z,11.93
2018-09-29T10:33:10.892Z,9.03
2018-09-29T10:35:40.375Z,6.47
2018-09-29T10:38:09.438Z,8.80
2018-09-29T10:40:39.091Z,5.70
2018-09-29T10:43:08.069Z,7.07
2018-09-29T10:45:37.064Z,9.90
2018-09-29T10:48:05.832Z,11.40
2018-09-29T10:50:34.694Z,8.70
2018-09-29T10:53:04.342Z,7.03
2018-09-29T10:55:33.681Z,11.87
2018-09-29T10:58:02.337Z,7.20
2018-09-29T11:00:31.555Z,11.57
2018-09-29T11:03:01.145Z,7.53
2018-09-29T11:05:29.846Z,6.10
2018-09-29T11:08:00.208Z,6.40
2018-09-29T11:10:29.592Z,9.73
2018-09-29T11:12:58.389Z,7.30
2018-09-29T11:15:27.362Z,7.37
2018-09-29T11:17:56.315Z,6.47
2018-09-29T11:20:25.217Z,6.60
2018-09-29T11:22:54.110Z,6.77
2018-09-29T11:25:22.954Z,4.83
2018-09-29T11:27:51.949Z,8.23
2018-09-29T11:30:20.910Z,8.57
2018-09-29T11:32:49.636Z,11.90
2018-09-29T11:35:18.804Z,3.90
2018-09-29T11:37:47.955Z,6.13
2018-09-29T11:40:16.910Z,6.80
2018-09-29T11:42:45.733Z,5.43
2018-09-29T11:45:14.589Z,6.77
2018-09-29T11:47:43.378Z,4.77
2018-09-29T11:50:12.117Z,5.10
2018-09-29T11:52:41.369Z,4.77
2018-09-29T11:55:10.188Z,7.67
2018-09-29T11:57:39.065Z,6.27
2018-09-29T12:00:08.259Z,3.40
2018-09-29T12:02:36.938Z,6.37
2018-09-29T12:05:06.828Z,4.67
2018-09-29T12:07:38.260Z,8.27
2018-09-29T12:10:07.733Z,3.80
2018-09-29T12:12:36.530Z,7.83
2018-09-29T12:15:05.422Z,7.57
2018-09-29T12:17:34.154Z,7.73
2018-09-29T12:20:02.879Z,6.17
2018-09-29T12:22:31.618Z,9.07
2018-09-29T12:25:00.573Z,10.90
2018-09-29T12:27:29.511Z,3.40
2018-09-29T12:29:58.376Z,6.97
2018-09-29T12:32:27.249Z,8.37
2018-09-29T12:34:56.117Z,2.87
2018-09-29T12:37:25.406Z,8.33
2018-09-29T12:39:54.315Z,6.30
2018-09-29T12:42:23.139Z,3.33
2018-09-29T12:44:52.214Z,5.97
2018-09-29T12:47:21.254Z,8.33
2018-09-29T12:49:49.877Z,3.13
2018-09-29T12:52:18.693Z,13.83
2018-09-29T12:54:47.705Z,5.87
2018-09-29T12:57:16.492Z,5.60
2018-09-29T12:59:45.319Z,7.00
2018-09-29T13:02:14.205Z,7.63
2018-09-29T13:04:43.233Z,10.53
2018-09-29T13:07:12.232Z,4.40
2018-09-29T13:09:41.194Z,3.43
2018-09-29T13:12:10.031Z,4.90
2018-09-29T13:14:39.109Z,5.10
2018-09-29T13:17:07.893Z,7.20
2018-09-29T13:19:36.700Z,4.23
2018-09-29T13:22:05.715Z,7.00
2018-09-29T13:24:34.487Z,4.53
2018-09-29T13:27:03.657Z,6.10
2018-09-29T13:29:33.367Z,3.80
2018-09-29T13:32:03.176Z,6.17
2018-09-29T13:34:31.952Z,6.27
2018-09-29T13:37:00.923Z,4.40
2018-09-29T13:39:29.734Z,4.90
2018-09-29T13:41:58.538Z,6.07
2018-09-29T13:44:27.238Z,7.00
2018-09-29T13:46:55.994Z,3.87
2018-09-29T13:49:24.777Z,5.23
2018-09-29T13:51:53.836Z,7.33
2018-09-29T13:54:22.431Z,5.63
2018-09-29T13:56:51.344Z,3.47
2018-09-29T13:59:20.248Z,4.80
2018-09-29T14:01:49.242Z,4.20
2018-09-29T14:04:18.178Z,5.17
2018-09-29T14:06:46.935Z,8.37
2018-09-29T14:09:15.774Z,7.67
2018-09-29T14:11:44.654Z,4.50
2018-09-29T14:14:13.575Z,4.43
2018-09-29T14:16:42.420Z,4.90
2018-09-29T14:19:11.380Z,3.90
2018-09-29T14:21:40.174Z,5.50
2018-09-29T14:24:08.856Z,5.23
2018-09-29T14:26:37.631Z,4.73
2018-09-29T14:29:06.728Z,6.00
2018-09-29T14:31:35.676Z,7.60
2018-09-29T14:34:04.499Z,4.57
2018-09-29T14:36:33.619Z,3.90
2018-09-29T14:39:02.367Z,7.57
2018-09-29T14:41:31.107Z,5.90
2018-09-29T14:43:59.935Z,4.67
2018-09-29T14:46:28.795Z,7.20
2018-09-29T14:48:57.856Z,6.03
2018-09-29T14:51:27.036Z,2.57
2018-09-29T14:53:55.840Z,3.10
2018-09-29T14:56:24.754Z,6.37
2018-09-29T14:58:53.510Z,7.73
2018-09-29T15:01:22.507Z,4.30
2018-09-29T15:03:51.409Z,7.10
2018-09-29T15:06:20.294Z,7.67
2018-09-29T15:08:49.946Z,7.53
2018-09-29T15:11:18.900Z,8.50
2018-09-29T15:13:47.873Z,5.53
2018-09-29T15:16:16.679Z,4.67
2018-09-29T15:18:45.811Z,3.93
2018-09-29T15:21:14.865Z,5.10
2018-09-29T15:23:44.106Z,5.67
2018-09-29T15:26:12.912Z,8.67
2018-09-29T15:28:41.628Z,4.97
2018-09-29T15:31:10.358Z,9.10
2018-09-29T15:33:39.176Z,5.23
2018-09-29T15:36:07.947Z,7.07
2018-09-29T15:38:37.285Z,6.73
2018-09-29T15:41:06.305Z,7.43
2018-09-29T15:43:35.470Z,2.70
2018-09-29T15:46:04.599Z,4.90
2018-09-29T15:48:33.619Z,6.80
2018-09-29T15:51:02.381Z,5.30
2018-09-29T15:53:31.171Z,11.03
2018-09-29T15:56:00.574Z,4.57
2018-09-29T15:58:30.138Z,5.90
2018-09-29T16:00:59.526Z,7.10
2018-09-29T16:03:28.844Z,5.00
2018-09-29T16:05:58.368Z,4.40
2018-09-29T16:08:27.907Z,10.00
2018-09-29T16:10:57.355Z,7.23
2018-09-29T16:13:26.510Z,9.30
2018-09-29T16:15:55.995Z,13.77
2018-09-29T16:18:25.444Z,4.33
2018-09-29T16:20:55.012Z,7.70
2018-09-29T16:23:24.481Z,3.90
2018-09-29T16:25:54.004Z,6.43
2018-09-29T16:28:23.575Z,7.23
2018-09-29T16:30:53.335Z,6.97
2018-09-29T16:33:22.770Z,6.20
2018-09-29T16:35:52.164Z,4.23
2018-09-29T16:38:21.703Z,5.50
2018-09-29T16:40:51.187Z,4.17
2018-09-29T16:43:20.696Z,7.83
2018-09-29T16:45:50.390Z,7.70
2018-09-29T16:48:19.793Z,6.37
2018-09-29T16:50:49.256Z,7.07
2018-09-29T16:53:18.740Z,4.80
2018-09-29T16:55:48.365Z,8.40
2018-09-29T16:58:17.937Z,6.63
2018-09-29T17:00:47.298Z,9.63
2018-09-29T17:03:16.862Z,10.60
2018-09-29T17:05:46.287Z,6.23
2018-09-29T17:08:15.681Z,6.10
2018-09-29T17:10:45.377Z,8.27
2018-09-29T17:13:14.932Z,5.90
2018-09-29T17:15:44.527Z,9.97
2018-09-29T17:18:14.123Z,7.93
2018-09-29T17:20:43.725Z,4.73
2018-09-29T17:23:13.249Z,8.33
2018-09-29T17:25:42.930Z,11.23
2018-09-29T17:28:12.428Z,10.87
2018-09-29T17:30:41.959Z,19.93
2018-09-29T17:33:11.645Z,13.77
2018-09-29T17:35:41.153Z,7.17
2018-09-29T17:38:10.644Z,12.13
2018-09-29T17:40:40.211Z,7.93
2018-09-29T17:43:09.665Z,12.67
2018-09-29T17:45:39.282Z,9.40
2018-09-29T17:48:08.849Z,15.23
2018-09-29T17:50:38.202Z,17.27
2018-09-29T17:53:07.798Z,20.60
2018-09-29T17:55:37.412Z,16.83
2018-09-29T17:58:06.819Z,12.97
2018-09-29T18:00:36.340Z,14.67
2018-09-29T18:03:05.924Z,14.03
2018-09-29T18:05:35.521Z,12.40
2018-09-29T18:08:04.991Z,14.27
2018-09-29T18:10:34.558Z,17.30
2018-09-29T18:13:04.024Z,22.30
2018-09-29T18:15:33.557Z,21.00
2018-09-29T18:18:03.049Z,27.07
2018-09-29T18:20:33.208Z,21.63
2018-09-29T18:23:02.787Z,18.70
2018-09-29T18:25:32.329Z,19.60
2018-09-29T18:28:02.104Z,20.30
2018-09-29T18:30:34.460Z,26.53
2018-09-29T18:33:04.682Z,14.73
2018-09-29T18:35:34.728Z,12.17
2018-09-29T18:38:06.359Z,16.47
2018-09-29T18:40:36.400Z,13.23
2018-09-29T18:43:05.996Z,16.17
2018-09-29T18:45:35.627Z,21.00
2018-09-29T18:48:05.172Z,17.20
2018-09-29T18:50:34.760Z,22.60
2018-09-29T18:53:04.306Z,22.37
2018-09-29T18:55:34.181Z,22.70
2018-09-29T18:58:03.822Z,14.73
2018-09-29T19:00:33.489Z,16.63
2018-09-29T19:03:03.160Z,16.37
2018-09-29T19:05:32.553Z,23.40
2018-09-29T19:08:02.039Z,19.30
2018-09-29T19:10:33.028Z,18.23
2018-09-29T19:13:02.374Z,24.03
2018-09-29T19:15:32.038Z,20.90
2018-09-29T19:18:02.567Z,20.60
2018-09-29T19:20:32.066Z,20.60
2018-09-29T19:23:01.552Z,27.43
2018-09-29T19:25:30.908Z,25.33
2018-09-29T19:28:00.735Z,29.70
2018-09-29T19:30:30.928Z,30.20
2018-09-29T19:34:03.196Z,28.70
2018-09-29T19:36:32.600Z,28.73
2018-09-29T19:39:02.050Z,22.27
2018-09-29T19:41:31.594Z,22.47
2018-09-29T19:44:01.066Z,19.97
2018-09-29T19:46:30.788Z,32.70
2018-09-29T19:49:01.306Z,25.03
2018-09-29T19:51:30.999Z,28.33
2018-09-29T19:54:00.733Z,26.23
2018-09-29T19:56:30.535Z,31.10
2018-09-29T19:59:00.144Z,26.33
2018-09-29T20:01:29.657Z,29.13
2018-09-29T20:03:59.328Z,23.50
2018-09-29T20:06:29.145Z,22.67
2018-09-29T20:08:58.580Z,22.50
2018-09-29T20:11:28.096Z,21.40
2018-09-29T20:13:57.473Z,31.20
2018-09-29T20:16:26.929Z,24.97
2018-09-29T20:18:57.143Z,27.97
2018-09-29T20:21:26.506Z,34.77
2018-09-29T20:23:56.007Z,25.70
2018-09-29T20:26:25.525Z,33.50
2018-09-29T20:28:55.042Z,31.50
2018-09-29T20:31:24.425Z,29.90
2018-09-29T20:33:53.467Z,33.23
2018-09-29T20:36:22.331Z,30.07
2018-09-29T20:38:51.644Z,32.93
2018-09-29T20:41:20.444Z,31.33
2018-09-29T20:43:49.207Z,40.30
2018-09-29T20:46:18.019Z,45.53
2018-09-29T20:48:47.306Z,42.83
2018-09-29T20:51:16.542Z,49.10
2018-09-29T20:53:45.394Z,48.90
2018-09-29T20:56:17.014Z,42.00
2018-09-29T20:58:46.131Z,44.97
2018-09-29T21:01:14.988Z,44.37
2018-09-29T21:03:43.939Z,42.80
2018-09-29T21:06:13.042Z,57.23
2018-09-29T21:08:41.909Z,44.40
2018-09-29T21:11:10.734Z,45.80
2018-09-29T21:13:39.915Z,43.17
2018-09-29T21:16:09.190Z,46.17
2018-09-29T21:18:37.770Z,37.73
2018-09-29T21:21:06.576Z,42.27
2018-09-29T21:23:35.466Z,35.60
2018-09-29T21:26:04.246Z,33.93
2018-09-29T21:28:34.117Z,49.30
2018-09-29T21:31:03.117Z,38.00
2018-09-29T21:33:31.755Z,40.87
2018-09-29T21:36:00.823Z,33.40
2018-09-29T21:38:29.607Z,36.90
2018-09-29T21:40:58.326Z,45.90
2018-09-29T21:43:27.186Z,52.50
2018-09-29T21:45:56.389Z,47.30
2018-09-29T21:48:25.289Z,48.73
2018-09-29T21:50:54.080Z,48.03
2018-09-29T21:53:22.757Z,43.50
2018-09-29T21:55:51.551Z,49.00
2018-09-29T21:58:20.363Z,44.87
2018-09-29T22:00:50.344Z,48.53
2018-09-29T22:03:19.367Z,47.97
2018-09-29T22:05:48.040Z,42.10
2018-09-29T22:08:16.993Z,45.07
2018-09-29T22:10:45.951Z,55.23
2018-09-29T22:13:14.671Z,48.80
2018-09-29T22:15:43.474Z,55.53
2018-09-29T22:18:12.462Z,50.57
2018-09-29T22:20:41.362Z,56.77
2018-09-29T22:23:10.459Z,64.70
2018-09-29T22:25:39.375Z,63.20
2018-09-29T22:28:08.163Z,63.67
2018-09-29T22:30:36.864Z,66.90
2018-09-29T22:33:05.711Z,82.47
2018-09-29T22:35:34.519Z,79.83
2018-09-29T22:38:03.486Z,93.13
2018-09-29T22:40:32.239Z,96.30
2018-09-29T22:43:01.244Z,88.37
2018-09-29T22:45:30.680Z,71.67
2018-09-29T22:47:59.440Z,83.00
2018-09-29T22:50:29.160Z,82.40
2018-09-29T22:52:58.501Z,78.20
2018-09-29T22:55:27.299Z,72.53
2018-09-29T22:58:02.168Z,69.87
2018-09-29T23:01:33.496Z,76.87
2018-09-29T23:04:03.584Z,76.63
2018-09-29T23:06:32.897Z,62.83
2018-09-29T23:09:01.774Z,55.13
2018-09-29T23:11:30.592Z,71.80
2018-09-29T23:13:59.466Z,69.20
2018-09-29T23:16:28.439Z,80.93
2018-09-29T23:18:57.206Z,65.80
2018-09-29T23:21:25.934Z,53.73
2018-09-29T23:23:55.032Z,56.83
2018-09-29T23:26:23.945Z,46.60
2018-09-29T23:28:55.981Z,58.63
2018-09-29T23:31:25.294Z,67.90
2018-09-29T23:33:54.151Z,59.27
2018-09-29T23:36:23.257Z,57.07
2018-09-29T23:38:52.046Z,55.00
2018-09-29T23:41:20.751Z,39.07
2018-09-29T23:43:49.920Z,35.73
2018-09-29T23:46:18.812Z,38.80
2018-09-29T23:48:47.698Z,40.50
2018-09-29T23:51:16.860Z,35.10
2018-09-29T23:53:45.962Z,34.60
2018-09-29T23:56:15.302Z,31.80
2018-09-29T23:58:44.752Z,38.60
